Time;durP1;ratioP1;P1;durP2;ratioP2;P2;SDS_P1;SDS_P2;PMS_P1;PMS_P2;Temp;Humidity;BMP_temperature;BMP_pressure;BME280_temperature;BME280_humidity;BME280_pressure;Samples;Min_cycle;Max_cycle;Signal;HPM_P1;HPM_P2
2023/05/20 00:01:01;;;;;;;7.72;4.65;;;14.30;99.90;;;;;;4879426;29;20229;-58
2023/05/20 00:03:28;;;;;;;8.55;5.00;;;14.30;99.90;;;;;;4879532;29;20583;-57
2023/05/20 00:05:54;;;;;;;9.45;5.22;;;14.30;99.90;;;;;;4879333;29;20212;-58
2023/05/20 00:08:20;;;;;;;8.75;5.43;;;14.40;99.90;;;;;;4879619;29;20169;-58
2023/05/20 00:10:45;;;;;;;8.70;5.00;;;14.30;99.90;;;;;;4879517;29;20535;-58
2023/05/20 00:13:11;;;;;;;7.25;4.53;;;14.30;99.90;;;;;;4879514;29;20245;-58
2023/05/20 00:15:37;;;;;;;6.63;4.88;;;14.40;99.90;;;;;;4879366;29;20181;-58
2023/05/20 00:18:03;;;;;;;7.00;4.60;;;14.40;99.90;;;;;;4879283;29;20276;-59
2023/05/20 00:20:29;;;;;;;7.45;4.50;;;14.30;99.90;;;;;;4879173;29;20570;-58
2023/05/20 00:22:55;;;;;;;8.90;5.15;;;14.20;99.90;;;;;;4879543;29;20532;-59
2023/05/20 00:25:21;;;;;;;7.60;4.53;;;14.20;99.90;;;;;;4879560;29;20182;-58
2023/05/20 00:27:46;;;;;;;7.28;4.63;;;14.20;99.90;;;;;;4879256;29;20673;-58
2023/05/20 00:30:12;;;;;;;8.40;4.93;;;14.20;99.90;;;;;;4879353;29;20289;-58
2023/05/20 00:32:38;;;;;;;7.63;4.60;;;14.20;99.90;;;;;;4879211;29;20237;-58
2023/05/20 00:35:05;;;;;;;10.57;4.53;;;14.20;99.90;;;;;;4879177;29;20181;-58
2023/05/20 00:37:30;;;;;;;8.68;4.10;;;14.00;99.90;;;;;;4879301;29;20201;-59
2023/05/20 00:39:56;;;;;;;8.32;4.82;;;14.00;99.90;;;;;;4879291;29;20255;-58
2023/05/20 00:42:22;;;;;;;7.60;4.50;;;14.00;99.90;;;;;;4879229;29;20230;-58
2023/05/20 00:44:48;;;;;;;6.00;3.90;;;13.90;99.90;;;;;;4879178;29;20183;-58
2023/05/20 00:47:16;;;;;;;6.22;4.20;;;13.90;99.90;;;;;;4879043;29;20182;-58
2023/05/20 00:49:46;;;;;;;6.15;3.70;;;13.90;99.90;;;;;;4878966;29;20185;-58
2023/05/20 00:52:13;;;;;;;5.55;3.75;;;14.00;99.90;;;;;;4879200;29;20202;-58
2023/05/20 00:54:40;;;;;;;7.28;4.30;;;13.90;99.90;;;;;;4878990;29;20217;-58
2023/05/20 00:57:07;;;;;;;5.65;3.22;;;13.90;99.90;;;;;;4879088;29;20180;-58
2023/05/20 00:59:36;;;;;;;5.20;3.78;;;13.80;99.90;;;;;;4878981;29;20319;-58
2023/05/20 01:02:05;;;;;;;6.07;3.80;;;13.80;99.90;;;;;;4862305;29;20185;-58
2023/05/20 01:04:31;;;;;;;7.57;3.53;;;13.80;99.90;;;;;;4879022;29;20232;-58
2023/05/20 01:06:59;;;;;;;6.63;3.53;;;13.70;99.90;;;;;;4881653;29;20554;-58
2023/05/20 01:09:25;;;;;;;6.72;3.58;;;13.70;99.90;;;;;;4882506;29;20181;-58
2023/05/20 01:12:19;;;;;;;9.07;4.05;;;13.70;99.90;;;;;;4882311;29;20178;-58
2023/05/20 01:14:50;;;;;;;5.07;3.40;;;13.80;99.90;;;;;;4850103;29;20599;-58
2023/05/20 01:17:19;;;;;;;4.60;3.50;;;13.70;99.90;;;;;;4882512;29;20181;-58
2023/05/20 01:19:47;;;;;;;4.72;3.63;;;13.60;99.90;;;;;;4882179;29;20582;-58
2023/05/20 01:22:13;;;;;;;7.18;3.80;;;13.40;99.90;;;;;;4882364;29;20178;-58
2023/05/20 01:24:52;;;;;;;7.90;3.90;;;13.40;99.90;;;;;;4882175;29;20264;-58
2023/05/20 01:27:19;;;;;;;6.40;3.90;;;13.40;99.90;;;;;;4881989;29;20233;-58
2023/05/20 01:29:47;;;;;;;8.63;3.95;;;13.50;99.90;;;;;;4882138;29;20192;-58
2023/05/20 01:32:22;;;;;;;7.97;3.78;;;13.50;99.90;;;;;;4882129;29;20177;-58
2023/05/20 01:34:50;;;;;;;4.40;3.45;;;13.40;99.90;;;;;;4882119;29;20656;-58
2023/05/20 01:37:18;;;;;;;5.50;3.50;;;13.40;99.90;;;;;;4881826;29;20686;-58
2023/05/20 01:39:46;;;;;;;7.22;3.53;;;13.40;99.90;;;;;;4881803;29;20237;-58
2023/05/20 01:42:14;;;;;;;5.32;3.42;;;13.40;99.90;;;;;;4882014;29;20529;-58
2023/05/20 01:44:40;;;;;;;8.43;3.72;;;13.40;99.90;;;;;;4881848;29;20237;-58
2023/05/20 01:47:06;;;;;;;6.38;3.80;;;13.40;99.90;;;;;;4881765;29;20189;-58
2023/05/20 01:49:32;;;;;;;7.13;3.80;;;13.30;99.90;;;;;;4881766;29;20245;-58
2023/05/20 01:51:58;;;;;;;7.07;4.03;;;13.20;99.90;;;;;;4881696;29;20182;-58
2023/05/20 01:54:23;;;;;;;6.30;3.38;;;13.10;99.90;;;;;;4881533;29;20651;-58
2023/05/20 01:56:49;;;;;;;3.97;3.30;;;13.20;99.90;;;;;;4881593;29;20192;-58
2023/05/20 01:59:15;;;;;;;6.85;3.78;;;13.10;99.90;;;;;;4864902;29;20182;-58
2023/05/20 02:01:41;;;;;;;5.00;3.20;;;13.10;99.90;;;;;;4881358;29;20182;-58
2023/05/20 02:04:06;;;;;;;4.68;3.33;;;13.20;99.90;;;;;;4881648;29;20236;-58
2023/05/20 02:06:32;;;;;;;6.38;3.58;;;13.10;99.90;;;;;;4881404;29;20276;-58
2023/05/20 02:08:58;;;;;;;5.57;3.70;;;13.00;99.90;;;;;;4881267;29;20205;-58
2023/05/20 02:11:23;;;;;;;8.23;3.78;;;13.00;99.90;;;;;;4881534;29;20188;-58
2023/05/20 02:13:50;;;;;;;6.38;3.50;;;13.10;99.90;;;;;;4881399;29;20455;-58
2023/05/20 02:16:16;;;;;;;7.47;3.92;;;13.10;99.90;;;;;;4881365;29;20560;-58
2023/05/20 02:18:41;;;;;;;5.88;3.05;;;13.10;99.90;;;;;;4880636;29;20177;-58
2023/05/20 02:21:07;;;;;;;8.18;3.70;;;13.20;99.90;;;;;;4881096;29;20315;-58
2023/05/20 02:23:33;;;;;;;7.03;3.88;;;13.10;99.90;;;;;;4881036;29;20249;-58
2023/05/20 02:25:58;;;;;;;8.32;3.85;;;13.00;99.90;;;;;;4881236;29;20189;-58
2023/05/20 02:28:24;;;;;;;6.07;4.10;;;13.10;99.90;;;;;;4881126;29;20213;-58
2023/05/20 02:30:50;;;;;;;6.78;3.88;;;13.00;99.90;;;;;;4881107;29;20710;-58
2023/05/20 02:33:16;;;;;;;9.38;4.22;;;13.00;99.90;;;;;;4880959;29;20185;-58
2023/05/20 02:35:42;;;;;;;6.35;3.83;;;12.90;99.90;;;;;;4880866;29;20184;-58
2023/05/20 02:38:07;;;;;;;6.93;4.10;;;12.90;99.90;;;;;;4880738;29;20189;-57
2023/05/20 02:40:33;;;;;;;5.60;3.83;;;12.80;99.90;;;;;;4880933;29;20213;-58
2023/05/20 02:43:02;;;;;;;4.75;3.53;;;12.90;99.90;;;;;;4880908;29;20182;-58
2023/05/20 02:45:28;;;;;;;5.95;4.10;;;12.90;99.90;;;;;;4880614;29;20181;-58
2023/05/20 02:47:53;;;;;;;7.57;4.28;;;12.90;99.90;;;;;;4880643;29;20233;-58
2023/05/20 02:50:19;;;;;;;5.50;3.90;;;12.80;99.90;;;;;;4880680;29;20189;-58
2023/05/20 02:52:46;;;;;;;5.55;3.70;;;12.80;99.90;;;;;;4880487;29;20189;-58
2023/05/20 02:55:12;;;;;;;6.35;3.88;;;12.90;99.90;;;;;;4880705;29;20593;-58
2023/05/20 02:57:38;;;;;;;4.05;3.65;;;12.70;99.90;;;;;;4880537;29;20188;-58
2023/05/20 03:00:07;;;;;;;5.97;4.55;;;12.70;99.90;;;;;;4880364;29;20663;-58
2023/05/20 03:02:33;;;;;;;6.00;3.97;;;12.80;99.90;;;;;;4880414;29;20674;-58
2023/05/20 03:04:59;;;;;;;5.93;4.05;;;12.80;99.90;;;;;;4880249;29;20240;-58
2023/05/20 03:07:24;;;;;;;6.78;4.10;;;12.70;99.90;;;;;;4880256;29;20174;-58
2023/05/20 03:09:51;;;;;;;6.93;4.43;;;12.80;99.90;;;;;;4880367;29;20209;-58
2023/05/20 03:12:17;;;;;;;7.60;3.95;;;12.70;99.90;;;;;;4880411;29;20736;-58
2023/05/20 03:14:43;;;;;;;7.10;4.28;;;12.60;99.90;;;;;;4880281;29;20269;-58
2023/05/20 03:17:09;;;;;;;6.75;4.57;;;12.60;99.90;;;;;;4880192;29;20209;-58
2023/05/20 03:19:35;;;;;;;6.22;4.28;;;12.60;99.90;;;;;;4879989;29;20213;-58
2023/05/20 03:22:01;;;;;;;5.07;3.78;;;12.50;99.90;;;;;;4879979;29;20268;-58
2023/05/20 03:24:27;;;;;;;6.45;4.25;;;12.50;99.90;;;;;;4880060;29;20208;-58
2023/05/20 03:26:53;;;;;;;7.00;3.95;;;12.60;99.90;;;;;;4880107;29;20614;-58
2023/05/20 03:29:19;;;;;;;4.65;4.07;;;12.70;99.90;;;;;;4879347;29;20268;-58
2023/05/20 03:31:45;;;;;;;7.53;4.13;;;12.70;99.90;;;;;;4879947;29;20554;-58
2023/05/20 03:34:10;;;;;;;6.50;4.40;;;12.60;99.90;;;;;;4879958;29;20335;-58
2023/05/20 03:36:36;;;;;;;9.13;4.38;;;12.60;99.90;;;;;;4879795;29;20678;-58
2023/05/20 03:39:03;;;;;;;9.70;4.45;;;12.60;99.90;;;;;;4880029;29;20173;-58
2023/05/20 03:41:28;;;;;;;7.05;4.38;;;12.50;99.90;;;;;;4879851;29;20311;-58
2023/05/20 03:43:54;;;;;;;6.40;4.53;;;12.60;99.90;;;;;;4879732;29;20209;-58
2023/05/20 03:46:20;;;;;;;6.25;4.18;;;12.50;99.90;;;;;;4879712;29;20655;-58
2023/05/20 03:48:45;;;;;;;7.35;4.97;;;12.50;99.90;;;;;;4879664;29;20181;-58
2023/05/20 03:51:11;;;;;;;6.72;4.53;;;12.50;99.90;;;;;;4879571;29;20205;-58
2023/05/20 03:53:37;;;;;;;7.18;4.50;;;12.50;99.90;;;;;;4879810;29;20189;-57
2023/05/20 03:56:02;;;;;;;10.07;4.65;;;12.40;99.90;;;;;;4879563;29;20181;-57
2023/05/20 03:58:28;;;;;;;5.40;4.45;;;12.30;99.90;;;;;;4879615;29;20193;-58
2023/05/20 04:00:57;;;;;;;7.20;4.80;;;12.40;99.90;;;;;;4879501;29;20221;-58
2023/05/20 04:03:23;;;;;;;8.95;4.65;;;12.30;99.90;;;;;;4879164;29;20674;-58
2023/05/20 04:05:49;;;;;;;5.28;4.18;;;12.30;99.90;;;;;;4879360;29;20193;-58
2023/05/20 04:08:15;;;;;;;6.22;4.18;;;12.30;99.90;;;;;;4862999;29;20185;-58
2023/05/20 04:10:43;;;;;;;7.47;4.80;;;12.30;99.90;;;;;;4879604;29;20188;-58
2023/05/20 04:13:10;;;;;;;7.38;4.47;;;12.30;99.90;;;;;;4879590;29;20214;-58
2023/05/20 04:15:37;;;;;;;7.60;4.68;;;12.30;99.90;;;;;;4879484;29;20263;-58
2023/05/20 04:18:04;;;;;;;5.70;4.45;;;12.20;99.90;;;;;;4879335;29;20212;-58
2023/05/20 04:20:30;;;;;;;7.45;5.00;;;12.20;99.90;;;;;;4879099;29;20224;-58
2023/05/20 04:22:56;;;;;;;9.30;4.68;;;12.30;99.90;;;;;;4879518;29;20178;-58
2023/05/20 04:25:22;;;;;;;6.18;4.22;;;12.30;99.90;;;;;;4879407;29;20188;-58
2023/05/20 04:27:48;;;;;;;8.20;4.53;;;12.20;99.90;;;;;;4879292;29;20276;-58
2023/05/20 04:30:16;;;;;;;7.32;4.70;;;12.10;99.90;;;;;;4879306;29;20281;-58
2023/05/20 04:32:42;;;;;;;6.13;4.47;;;12.10;99.90;;;;;;4879147;29;20686;-58
2023/05/20 04:35:10;;;;;;;7.20;4.80;;;12.20;99.90;;;;;;4879065;29;20189;-58
2023/05/20 04:37:41;;;;;;;6.70;4.50;;;12.20;99.90;;;;;;4879349;29;20189;-58
2023/05/20 04:40:08;;;;;;;6.28;4.55;;;12.20;99.90;;;;;;4879159;29;20242;-58
2023/05/20 04:42:33;;;;;;;5.60;4.20;;;12.40;99.90;;;;;;4882947;29;20209;-58
2023/05/20 04:45:00;;;;;;;6.45;4.50;;;12.40;99.90;;;;;;4882932;29;20635;-58
2023/05/20 04:47:27;;;;;;;6.93;4.45;;;12.40;99.90;;;;;;4882648;29;20651;-57
2023/05/20 04:49:56;;;;;;;9.13;4.95;;;12.40;99.90;;;;;;4882973;29;20236;-58
2023/05/20 04:52:22;;;;;;;9.57;4.72;;;12.30;99.90;;;;;;4882621;29;20643;-58
2023/05/20 04:54:49;;;;;;;9.02;5.15;;;12.30;99.90;;;;;;4882758;29;20181;-58
2023/05/20 04:57:16;;;;;;;5.63;4.57;;;12.30;99.90;;;;;;4882599;29;20190;-58
2023/05/20 04:59:42;;;;;;;6.68;4.13;;;12.30;99.90;;;;;;4882543;29;20205;-58
2023/05/20 05:02:07;;;;;;;5.90;4.35;;;12.40;99.90;;;;;;4882889;29;20193;-58
2023/05/20 05:04:33;;;;;;;7.32;5.22;;;12.30;99.90;;;;;;4882373;29;20774;-58
2023/05/20 05:06:59;;;;;;;8.27;4.80;;;12.20;99.90;;;;;;4882588;29;20670;-58
2023/05/20 05:09:24;;;;;;;6.43;4.68;;;12.20;99.90;;;;;;4882513;29;20182;-58
2023/05/20 05:11:50;;;;;;;7.57;4.75;;;12.30;99.90;;;;;;4882410;29;20177;-58
2023/05/20 05:14:16;;;;;;;7.53;4.75;;;12.40;99.90;;;;;;4882371;29;20213;-57
2023/05/20 05:16:41;;;;;;;7.25;4.32;;;12.50;99.90;;;;;;4882203;29;20613;-58
2023/05/20 05:19:07;;;;;;;8.00;4.22;;;12.50;99.90;;;;;;4882409;29;20638;-58
2023/05/20 05:21:33;;;;;;;6.93;4.40;;;12.60;99.90;;;;;;4882317;29;20177;-58
2023/05/20 05:23:58;;;;;;;7.95;5.15;;;12.60;99.90;;;;;;4882273;29;20269;-58
2023/05/20 05:26:25;;;;;;;7.15;4.88;;;12.70;99.90;;;;;;4882236;29;20711;-58
2023/05/20 05:28:51;;;;;;;6.70;4.93;;;12.80;99.90;;;;;;4882138;29;20539;-58
2023/05/20 05:31:17;;;;;;;7.53;4.95;;;13.00;99.90;;;;;;4882007;29;20181;-57
2023/05/20 05:33:43;;;;;;;6.72;4.70;;;13.20;99.90;;;;;;4882336;29;20184;-58
2023/05/20 05:36:08;;;;;;;7.32;5.03;;;13.20;99.90;;;;;;4882085;29;20182;-58
2023/05/20 05:38:34;;;;;;;9.40;4.70;;;13.20;99.90;;;;;;4865361;29;20356;-58
2023/05/20 05:41:00;;;;;;;8.30;4.70;;;13.20;99.90;;;;;;4881809;29;20697;-56
2023/05/20 05:43:29;;;;;;;5.72;4.65;;;13.20;99.90;;;;;;4881858;29;20186;-57
2023/05/20 05:45:54;;;;;;;6.45;4.68;;;13.30;99.90;;;;;;4881800;29;20264;-58
2023/05/20 05:48:21;;;;;;;8.80;5.38;;;13.40;99.90;;;;;;4881923;29;20261;-58
2023/05/20 05:50:47;;;;;;;5.90;4.57;;;13.30;99.90;;;;;;4881610;29;20631;-57
2023/05/20 05:53:13;;;;;;;8.38;4.93;;;13.30;99.90;;;;;;4880841;29;20210;-58
2023/05/20 05:55:38;;;;;;;8.07;4.35;;;13.50;99.90;;;;;;4881562;29;20212;-57
2023/05/20 05:58:04;;;;;;;7.60;4.80;;;13.60;99.90;;;;;;4881646;29;20174;-57
2023/05/20 06:00:30;;;;;;;7.97;4.80;;;13.70;99.90;;;;;;4881385;29;20213;-57
2023/05/20 06:02:55;;;;;;;5.53;4.50;;;13.90;99.90;;;;;;4881592;29;20189;-58
2023/05/20 06:05:21;;;;;;;6.35;4.47;;;13.90;99.90;;;;;;4881617;29;20192;-57
2023/05/20 06:07:47;;;;;;;8.23;5.13;;;13.90;99.90;;;;;;4881500;29;20217;-57
2023/05/20 06:10:12;;;;;;;5.95;4.38;;;13.90;99.90;;;;;;4881415;29;20177;-58
2023/05/20 06:12:38;;;;;;;5.63;4.68;;;14.10;99.90;;;;;;4881248;29;20189;-57
2023/05/20 06:15:05;;;;;;;7.88;4.53;;;14.20;99.90;;;;;;4881118;29;20631;-55
2023/05/20 06:17:31;;;;;;;8.70;5.32;;;14.30;99.90;;;;;;4881344;29;20185;-58
2023/05/20 06:19:57;;;;;;;7.13;4.47;;;14.30;99.90;;;;;;4864645;29;20217;-57
2023/05/20 06:22:22;;;;;;;6.25;4.70;;;14.30;99.90;;;;;;4881253;29;20185;-57
2023/05/20 06:24:48;;;;;;;7.25;4.50;;;14.40;99.90;;;;;;4881144;29;20177;-57
2023/05/20 06:27:13;;;;;;;5.70;4.65;;;14.40;99.90;;;;;;4881048;29;20521;-60
2023/05/20 06:29:39;;;;;;;7.65;4.55;;;14.40;99.90;;;;;;4880989;29;20775;-57
2023/05/20 06:32:05;;;;;;;5.90;4.40;;;14.50;99.90;;;;;;4881176;29;20691;-58
2023/05/20 06:34:31;;;;;;;7.03;4.53;;;14.60;99.90;;;;;;4880965;29;20280;-57
2023/05/20 06:36:57;;;;;;;6.22;4.32;;;14.50;99.90;;;;;;4881148;29;20272;-57
2023/05/20 06:39:24;;;;;;;6.50;4.80;;;14.50;99.90;;;;;;4880722;29;20658;-58
2023/05/20 06:41:50;;;;;;;7.38;4.72;;;14.70;99.90;;;;;;4880846;29;20209;-55
2023/05/20 06:44:17;;;;;;;6.85;4.60;;;14.90;99.90;;;;;;4880680;29;20193;-59
2023/05/20 06:46:43;;;;;;;6.45;4.82;;;15.10;99.90;;;;;;4880779;29;20183;-58
2023/05/20 06:49:09;;;;;;;6.38;4.22;;;15.10;99.90;;;;;;4880817;29;20185;-57
2023/05/20 06:51:34;;;;;;;8.45;4.68;;;15.00;99.90;;;;;;4880774;29;20185;-57
2023/05/20 06:54:00;;;;;;;6.85;4.88;;;15.10;99.90;;;;;;4880472;29;20237;-57
2023/05/20 06:56:26;;;;;;;5.85;4.53;;;15.30;99.90;;;;;;4880390;29;20226;-58
2023/05/20 06:58:52;;;;;;;7.82;4.40;;;15.40;99.90;;;;;;4880342;29;20190;-57
2023/05/20 07:01:17;;;;;;;5.82;4.85;;;15.40;99.90;;;;;;4880544;29;20265;-57
2023/05/20 07:03:43;;;;;;;7.85;4.15;;;15.50;99.90;;;;;;4880015;29;20236;-58
2023/05/20 07:06:09;;;;;;;8.43;4.55;;;15.70;99.90;;;;;;4880447;29;20228;-57
2023/05/20 07:08:35;;;;;;;6.95;4.32;;;15.80;99.90;;;;;;4880466;29;20238;-56
2023/05/20 07:11:01;;;;;;;5.97;3.95;;;16.00;99.90;;;;;;4880336;29;20226;-57
2023/05/20 07:13:26;;;;;;;5.38;4.40;;;16.10;99.90;;;;;;4880270;29;20182;-57
2023/05/20 07:15:52;;;;;;;4.72;4.20;;;16.20;99.90;;;;;;4880191;29;20185;-57
2023/05/20 07:18:18;;;;;;;6.97;4.18;;;16.40;99.90;;;;;;4880242;29;20185;-58
2023/05/20 07:20:44;;;;;;;5.82;4.50;;;16.60;99.90;;;;;;4880180;29;20671;-56
2023/05/20 07:23:09;;;;;;;5.47;4.18;;;16.80;99.90;;;;;;4880123;29;20527;-57
2023/05/20 07:25:35;;;;;;;6.32;4.20;;;16.80;99.90;;;;;;4880078;29;20192;-56
2023/05/20 07:28:01;;;;;;;5.93;4.53;;;16.70;99.90;;;;;;4879911;29;20635;-56
2023/05/20 07:30:27;;;;;;;8.05;4.57;;;17.00;99.90;;;;;;4880095;29;20192;-56
2023/05/20 07:32:52;;;;;;;5.38;4.68;;;16.90;99.90;;;;;;4879924;29;20520;-57
2023/05/20 07:35:18;;;;;;;6.63;4.43;;;16.90;99.90;;;;;;4879986;29;20193;-58
2023/05/20 07:37:44;;;;;;;9.15;4.53;;;17.00;99.90;;;;;;4879879;29;20631;-58
2023/05/20 07:40:10;;;;;;;8.10;4.43;;;17.00;99.90;;;;;;4879665;29;20683;-57
2023/05/20 07:42:36;;;;;;;7.20;4.57;;;17.20;99.90;;;;;;4879694;29;20212;-56
2023/05/20 07:45:02;;;;;;;6.03;4.15;;;17.20;99.90;;;;;;4879912;29;20241;-55
2023/05/20 07:47:27;;;;;;;5.28;4.18;;;17.30;99.90;;;;;;4879920;29;20217;-56
2023/05/20 07:49:53;;;;;;;6.15;4.38;;;17.10;99.90;;;;;;4879856;29;20567;-56
2023/05/20 07:52:19;;;;;;;6.10;3.90;;;17.30;99.90;;;;;;4879798;29;20592;-58
2023/05/20 07:54:44;;;;;;;5.25;3.47;;;17.40;99.90;;;;;;4879544;29;20591;-57
2023/05/20 07:57:14;;;;;;;5.97;3.53;;;17.50;99.90;;;;;;4879601;29;20738;-57
2023/05/20 07:59:40;;;;;;;5.10;3.70;;;17.60;99.90;;;;;;4879639;29;20209;-56
2023/05/20 08:02:05;;;;;;;6.15;3.85;;;17.70;99.90;;;;;;4879717;29;20196;-56
2023/05/20 08:04:31;;;;;;;5.18;3.75;;;17.70;99.90;;;;;;4879399;29;20247;-58
2023/05/20 08:06:57;;;;;;;6.10;3.80;;;17.90;99.90;;;;;;4879434;29;20181;-57
2023/05/20 08:09:23;;;;;;;8.00;3.78;;;17.90;99.90;;;;;;4879444;29;20181;-57
2023/05/20 08:11:48;;;;;;;4.28;3.20;;;17.80;99.90;;;;;;4879331;29;20182;-58
2023/05/20 08:14:14;;;;;;;5.93;3.53;;;17.80;99.90;;;;;;4879104;29;20197;-56
2023/05/20 08:16:41;;;;;;;4.28;3.50;;;17.80;99.90;;;;;;4878963;29;20182;-57
2023/05/20 08:19:06;;;;;;;4.60;3.22;;;18.10;99.90;;;;;;4879311;29;20181;-56
2023/05/20 08:21:32;;;;;;;5.72;3.60;;;18.20;99.90;;;;;;4878393;29;20307;-58
2023/05/20 08:23:58;;;;;;;5.03;3.50;;;18.20;99.90;;;;;;4879206;29;20218;-56
2023/05/20 08:26:23;;;;;;;4.53;3.45;;;18.10;99.90;;;;;;4872239;29;20189;-57
2023/05/20 08:28:49;;;;;;;4.43;3.45;;;18.30;99.90;;;;;;4879144;29;20600;-58
2023/05/20 08:31:16;;;;;;;8.05;3.85;;;18.20;99.90;;;;;;4879400;29;20192;-58
2023/05/20 08:33:42;;;;;;;4.03;3.63;;;18.30;99.90;;;;;;4879236;29;20181;-58
2023/05/20 08:36:07;;;;;;;7.30;3.33;;;18.50;99.90;;;;;;4879269;29;20652;-56
2023/05/20 08:38:33;;;;;;;3.78;3.38;;;18.50;99.90;;;;;;4862555;29;20182;-58
2023/05/20 08:40:59;;;;;;;5.35;3.20;;;18.60;99.90;;;;;;4878978;29;20209;-57
2023/05/20 08:43:25;;;;;;;4.70;3.15;;;18.50;99.90;;;;;;4879337;29;20265;-58
2023/05/20 08:45:51;;;;;;;4.70;3.10;;;18.70;99.90;;;;;;4879129;29;20181;-58
2023/05/20 08:48:17;;;;;;;4.18;3.13;;;18.80;99.90;;;;;;4879215;29;20645;-57
2023/05/20 08:50:48;;;;;;;4.30;3.25;;;19.00;99.90;;;;;;4879176;29;20256;-58
2023/05/20 08:53:14;;;;;;;4.45;2.88;;;19.10;99.90;;;;;;4879164;29;20173;-56
2023/05/20 08:55:47;;;;;;;4.78;3.00;;;19.10;99.10;;;;;;4878947;29;20217;-57
2023/05/20 08:58:15;;;;;;;4.22;2.55;;;19.10;99.30;;;;;;4879240;29;20173;-58
2023/05/20 09:00:41;;;;;;;4.53;2.90;;;18.90;98.70;;;;;;4879142;29;20308;-56
2023/05/20 09:03:06;;;;;;;5.25;3.22;;;19.00;99.90;;;;;;4879247;29;20589;-56
2023/05/20 09:05:33;;;;;;;2.70;2.45;;;19.10;99.90;;;;;;4879140;29;20261;-57
2023/05/20 09:08:10;;;;;;;3.95;2.80;;;19.10;99.50;;;;;;4878928;29;20185;-57
2023/05/20 09:10:40;;;;;;;4.50;2.80;;;19.20;98.60;;;;;;4879152;29;20639;-56
2023/05/20 09:13:07;;;;;;;4.57;3.05;;;19.30;98.90;;;;;;4878976;29;20666;-58
2023/05/20 09:15:34;;;;;;;3.95;2.80;;;19.60;99.60;;;;;;4879309;29;20576;-57
2023/05/20 09:18:05;;;;;;;5.78;2.78;;;19.80;98.80;;;;;;4878852;29;20262;-58
2023/05/20 09:20:35;;;;;;;6.32;3.15;;;19.90;96.50;;;;;;4878756;29;20222;-58
2023/05/20 09:23:03;;;;;;;4.35;2.92;;;19.70;97.40;;;;;;4879028;29;20182;-58
2023/05/20 09:25:29;;;;;;;8.30;2.97;;;19.50;97.50;;;;;;4878956;29;20178;-57
2023/05/20 09:27:55;;;;;;;4.30;2.67;;;19.70;98.10;;;;;;4879915;29;20177;-58
2023/05/20 09:30:22;;;;;;;4.00;2.60;;;19.70;96.80;;;;;;4882124;29;20257;-58
2023/05/20 09:32:58;;;;;;;3.15;2.35;;;19.70;97.80;;;;;;4882056;29;20186;-57
2023/05/20 09:35:25;;;;;;;5.15;2.40;;;19.70;96.90;;;;;;4881890;29;20587;-58
2023/05/20 09:37:57;;;;;;;4.15;2.30;;;19.90;96.00;;;;;;4882172;29;20182;-57
2023/05/20 09:40:29;;;;;;;9.95;2.40;;;19.50;94.70;;;;;;4881909;29;20273;-57
2023/05/20 09:43:07;;;;;;;5.00;2.70;;;19.50;95.80;;;;;;4865325;29;20192;-58
2023/05/20 09:45:37;;;;;;;3.42;2.55;;;19.80;96.30;;;;;;4881913;29;20225;-58
2023/05/20 09:48:04;;;;;;;3.53;2.45;;;19.80;95.90;;;;;;4881882;29;20217;-58
2023/05/20 09:50:31;;;;;;;4.53;2.28;;;19.70;95.70;;;;;;4881765;29;20190;-57
2023/05/20 09:53:01;;;;;;;4.82;2.40;;;19.70;96.60;;;;;;4881867;29;20184;-57
2023/05/20 09:55:28;;;;;;;4.47;2.33;;;19.80;95.30;;;;;;4881738;29;20169;-57
2023/05/20 09:57:55;;;;;;;4.43;2.42;;;19.70;95.50;;;;;;4881562;29;20643;-58
2023/05/20 10:00:20;;;;;;;7.50;2.30;;;19.70;95.40;;;;;;4881415;29;20205;-58
2023/05/20 10:02:50;;;;;;;4.93;2.40;;;19.60;96.10;;;;;;4881492;29;20181;-57
2023/05/20 10:05:26;;;;;;;3.55;2.53;;;19.70;94.60;;;;;;4881536;29;20193;-58
2023/05/20 10:08:10;;;;;;;4.28;2.40;;;20.10;95.40;;;;;;4881432;29;20635;-57
2023/05/20 10:10:39;;;;;;;3.33;2.22;;;20.00;95.10;;;;;;4881267;29;20639;-58
2023/05/20 10:13:24;;;;;;;3.20;2.90;;;20.30;95.40;;;;;;4881633;29;20268;-58
2023/05/20 10:16:22;;;;;;;5.68;2.42;;;20.30;94.50;;;;;;4881625;29;20533;-58
2023/05/20 10:18:48;;;;;;;3.95;2.58;;;20.00;94.60;;;;;;4881217;29;20196;-58
2023/05/20 10:21:23;;;;;;;3.67;2.50;;;20.00;94.80;;;;;;4881000;29;20216;-58
2023/05/20 10:23:51;;;;;;;5.78;2.38;;;20.20;95.10;;;;;;4881299;29;20193;-58
2023/05/20 10:26:18;;;;;;;3.92;2.70;;;20.20;95.20;;;;;;4881228;29;20205;-58
2023/05/20 10:28:45;;;;;;;3.35;2.60;;;20.30;95.20;;;;;;4881155;29;20178;-58
2023/05/20 10:31:20;;;;;;;6.80;2.75;;;20.60;95.10;;;;;;4880991;29;20185;-57
2023/05/20 10:33:47;;;;;;;3.40;2.40;;;20.60;94.40;;;;;;4880976;29;20518;-58
2023/05/20 10:36:26;;;;;;;3.45;2.33;;;20.70;94.70;;;;;;4881096;29;20188;-58
2023/05/20 10:38:56;;;;;;;3.83;2.47;;;20.90;94.40;;;;;;4880516;29;20639;-58
2023/05/20 10:41:27;;;;;;;4.72;2.13;;;21.00;92.60;;;;;;4880805;29;20220;-58
2023/05/20 10:44:04;;;;;;;3.65;2.45;;;20.80;92.70;;;;;;4880689;29;20169;-58
2023/05/20 10:46:31;;;;;;;3.70;2.90;;;20.50;92.60;;;;;;4880782;29;20229;-58
2023/05/20 10:48:57;;;;;;;5.82;2.45;;;20.80;92.70;;;;;;4880741;29;20702;-58
2023/05/20 10:51:24;;;;;;;6.35;2.30;;;20.70;92.90;;;;;;4880632;29;20579;-58
2023/05/20 10:53:54;;;;;;;2.55;2.33;;;20.90;94.40;;;;;;4864034;29;20178;-58
2023/05/20 10:56:21;;;;;;;5.40;2.63;;;20.80;92.70;;;;;;4880618;29;20208;-58
2023/05/20 10:58:47;;;;;;;6.15;2.80;;;20.70;93.40;;;;;;4880202;29;20178;-58
2023/05/20 11:01:13;;;;;;;4.90;2.50;;;20.90;94.60;;;;;;4880282;29;20567;-58
2023/05/20 11:03:46;;;;;;;4.55;2.60;;;20.90;92.90;;;;;;4880169;29;20226;-58
2023/05/20 11:06:17;;;;;;;3.58;2.60;;;21.00;94.50;;;;;;4880204;29;20547;-58
2023/05/20 11:08:44;;;;;;;6.28;2.40;;;21.10;93.50;;;;;;4880221;29;20185;-58
2023/05/20 11:11:11;;;;;;;3.40;1.92;;;21.20;92.70;;;;;;4880214;29;20185;-58
2023/05/20 11:13:37;;;;;;;4.38;2.47;;;21.10;92.80;;;;;;4880396;29;20186;-56
2023/05/20 11:16:03;;;;;;;3.45;2.53;;;21.00;92.50;;;;;;4880359;29;20184;-58
2023/05/20 11:18:30;;;;;;;5.13;2.70;;;20.80;93.80;;;;;;4880122;29;20174;-58
2023/05/20 11:20:57;;;;;;;5.15;2.40;;;20.90;93.40;;;;;;4880105;29;20224;-58
2023/05/20 11:23:25;;;;;;;4.95;2.38;;;21.10;92.30;;;;;;4880018;29;20200;-58
2023/05/20 11:25:51;;;;;;;5.28;2.22;;;21.20;92.00;;;;;;4880021;29;20177;-58
2023/05/20 11:28:20;;;;;;;5.07;2.78;;;21.10;92.80;;;;;;4880173;29;20177;-58
2023/05/20 11:30:46;;;;;;;3.30;2.42;;;21.20;92.30;;;;;;4879957;29;20679;-58
2023/05/20 11:33:14;;;;;;;5.63;2.55;;;21.10;92.00;;;;;;4879845;29;20254;-58
2023/05/20 11:35:51;;;;;;;4.45;2.05;;;21.20;93.00;;;;;;4880028;29;20312;-58
2023/05/20 11:38:18;;;;;;;4.35;2.63;;;21.40;92.10;;;;;;4879646;29;20185;-58
2023/05/20 11:40:45;;;;;;;4.75;2.58;;;21.30;92.30;;;;;;4879862;29;20557;-58
2023/05/20 11:43:12;;;;;;;2.90;2.20;;;21.00;92.00;;;;;;4879876;29;20189;-58
2023/05/20 11:45:43;;;;;;;3.13;1.80;;;20.90;91.90;;;;;;4879810;29;20208;-58
2023/05/20 11:48:10;;;;;;;3.80;2.55;;;21.00;93.20;;;;;;4879782;29;20208;-58
2023/05/20 11:50:43;;;;;;;4.00;2.55;;;21.00;94.00;;;;;;4878881;29;20189;-58
2023/05/20 11:53:13;;;;;;;4.40;2.53;;;20.90;93.50;;;;;;4879559;29;20679;-58
2023/05/20 11:55:46;;;;;;;3.55;2.60;;;20.90;93.00;;;;;;4879806;29;20181;-58
2023/05/20 11:58:15;;;;;;;3.72;2.40;;;21.00;92.90;;;;;;4879627;29;20174;-58
2023/05/20 12:00:41;;;;;;;3.42;2.30;;;21.20;93.20;;;;;;4879474;29;20747;-58
2023/05/20 12:03:10;;;;;;;4.47;2.40;;;21.40;93.10;;;;;;4879466;29;20240;-58
2023/05/20 12:05:36;;;;;;;4.03;2.58;;;21.40;93.50;;;;;;4879626;29;20183;-58
2023/05/20 12:08:02;;;;;;;5.47;2.15;;;21.40;93.20;;;;;;4879729;29;20272;-58
2023/05/20 12:10:28;;;;;;;7.47;2.60;;;21.50;92.40;;;;;;4879548;29;20183;-58
2023/05/20 12:12:54;;;;;;;5.32;2.35;;;21.60;92.30;;;;;;4879538;29;20212;-58
2023/05/20 12:15:20;;;;;;;3.28;2.17;;;21.60;93.10;;;;;;4879947;29;20209;-59
2023/05/20 12:17:48;;;;;;;3.20;2.50;;;21.50;92.60;;;;;;4879304;29;20180;-58
2023/05/20 12:20:16;;;;;;;5.53;3.13;;;21.50;92.70;;;;;;4879469;29;20209;-58
2023/05/20 12:22:43;;;;;;;3.88;2.22;;;21.70;93.80;;;;;;4879288;29;20643;-58
2023/05/20 12:25:11;;;;;;;3.75;2.28;;;22.00;93.30;;;;;;4879412;29;20185;-58
2023/05/20 12:27:36;;;;;;;2.80;2.38;;;22.00;91.80;;;;;;4879284;29;20197;-58
2023/05/20 12:30:02;;;;;;;4.38;2.70;;;22.00;91.70;;;;;;4879221;29;20189;-58
2023/05/20 12:32:28;;;;;;;5.43;2.65;;;21.70;92.30;;;;;;4879218;29;20672;-58
2023/05/20 12:34:54;;;;;;;3.70;2.50;;;21.60;92.50;;;;;;4879243;29;20186;-58
2023/05/20 12:37:20;;;;;;;5.32;2.63;;;21.40;93.10;;;;;;4879381;29;20241;-58
2023/05/20 12:39:45;;;;;;;6.00;2.97;;;21.50;92.50;;;;;;4879204;29;20216;-58
2023/05/20 12:42:11;;;;;;;4.65;2.70;;;21.60;91.90;;;;;;4879152;29;20655;-58
2023/05/20 12:44:37;;;;;;;6.20;2.97;;;21.50;92.10;;;;;;4871709;29;20254;-58
2023/05/20 12:47:02;;;;;;;5.57;3.15;;;21.60;92.10;;;;;;4879006;29;20577;-58